sensor_id;sensor_type;location;lat;lon;timestamp;P1;durP1;ratioP1;P2;durP2;ratioP2
58896;SDS011;44677;52.378;10.400;2023-03-21T00:00:24;25.00;;;18.30;;
58896;SDS011;44677;52.378;10.400;2023-03-21T00:02:50;27.90;;;18.50;;
58896;SDS011;44677;52.378;10.400;2023-03-21T00:05:15;29.70;;;19.00;;
58896;SDS011;44677;52.378;10.400;2023-03-21T00:07:40;24.70;;;18.10;;
58896;SDS011;44677;52.378;10.400;2023-03-21T00:10:06;27.70;;;18.60;;
58896;SDS011;44677;52.378;10.400;2023-03-21T00:12:31;25.10;;;18.40;;
58896;SDS011;44677;52.378;10.400;2023-03-21T00:15:05;24.30;;;18.00;;
58896;SDS011;44677;52.378;10.400;2023-03-21T00:17:31;27.50;;;18.80;;
58896;SDS011;44677;52.378;10.400;2023-03-21T00:20:02;28.10;;;20.60;;
58896;SDS011;44677;52.378;10.400;2023-03-21T00:22:33;30.30;;;17.90;;
58896;SDS011;44677;52.378;10.400;2023-03-21T00:24:59;30.10;;;18.60;;
58896;SDS011;44677;52.378;10.400;2023-03-21T00:27:24;29.00;;;18.80;;
58896;SDS011;44677;52.378;10.400;2023-03-21T00:29:49;26.70;;;19.40;;
58896;SDS011;44677;52.378;10.400;2023-03-21T00:32:16;28.80;;;19.00;;
58896;SDS011;44677;52.378;10.400;2023-03-21T00:34:45;27.10;;;19.10;;
58896;SDS011;44677;52.378;10.400;2023-03-21T00:37:14;29.60;;;20.40;;
58896;SDS011;44677;52.378;10.400;2023-03-21T00:39:42;33.20;;;21.00;;
58896;SDS011;44677;52.378;10.400;2023-03-21T00:42:11;28.40;;;19.30;;
58896;SDS011;44677;52.378;10.400;2023-03-21T00:44:37;30.40;;;19.90;;
58896;SDS011;44677;52.378;10.400;2023-03-21T00:47:04;27.60;;;19.40;;
58896;SDS011;44677;52.378;10.400;2023-03-21T00:49:32;27.70;;;19.50;;
58896;SDS011;44677;52.378;10.400;2023-03-21T00:52:00;25.40;;;18.00;;
58896;SDS011;44677;52.378;10.400;2023-03-21T00:54:31;29.20;;;19.30;;
58896;SDS011;44677;52.378;10.400;2023-03-21T00:56:57;25.90;;;20.10;;
58896;SDS011;44677;52.378;10.400;2023-03-21T00:59:22;27.30;;;18.50;;
58896;SDS011;44677;52.378;10.400;2023-03-21T01:01:48;30.00;;;20.00;;
58896;SDS011;44677;52.378;10.400;2023-03-21T01:04:13;32.90;;;20.70;;
58896;SDS011;44677;52.378;10.400;2023-03-21T01:06:41;32.10;;;21.40;;
58896;SDS011;44677;52.378;10.400;2023-03-21T01:11:43;29.10;;;18.80;;
58896;SDS011;44677;52.378;10.400;2023-03-21T01:14:09;28.30;;;19.00;;
58896;SDS011;44677;52.378;10.400;2023-03-21T01:16:36;34.80;;;20.50;;
58896;SDS011;44677;52.378;10.400;2023-03-21T01:19:02;28.00;;;20.30;;
58896;SDS011;44677;52.378;10.400;2023-03-21T01:21:30;26.60;;;20.00;;
58896;SDS011;44677;52.378;10.400;2023-03-21T01:23:56;29.10;;;20.90;;
58896;SDS011;44677;52.378;10.400;2023-03-21T01:26:21;28.50;;;19.60;;
58896;SDS011;44677;52.378;10.400;2023-03-21T01:28:47;27.60;;;18.90;;
58896;SDS011;44677;52.378;10.400;2023-03-21T01:31:13;27.00;;;20.30;;
58896;SDS011;44677;52.378;10.400;2023-03-21T01:33:43;29.60;;;20.00;;
58896;SDS011;44677;52.378;10.400;2023-03-21T01:36:12;30.70;;;19.20;;
58896;SDS011;44677;52.378;10.400;2023-03-21T01:38:40;27.30;;;19.50;;
58896;SDS011;44677;52.378;10.400;2023-03-21T01:41:06;30.00;;;21.30;;
58896;SDS011;44677;52.378;10.400;2023-03-21T01:43:35;27.00;;;19.60;;
58896;SDS011;44677;52.378;10.400;2023-03-21T01:51:47;29.20;;;19.40;;
58896;SDS011;44677;52.378;10.400;2023-03-21T01:54:26;30.70;;;19.20;;
58896;SDS011;44677;52.378;10.400;2023-03-21T01:56:53;28.40;;;20.30;;
58896;SDS011;44677;52.378;10.400;2023-03-21T01:59:24;29.20;;;19.70;;
58896;SDS011;44677;52.378;10.400;2023-03-21T02:02:14;30.10;;;18.90;;
58896;SDS011;44677;52.378;10.400;2023-03-21T02:04:53;31.50;;;19.50;;
58896;SDS011;44677;52.378;10.400;2023-03-21T02:07:30;33.00;;;20.40;;
58896;SDS011;44677;52.378;10.400;2023-03-21T02:10:04;25.50;;;18.40;;
58896;SDS011;44677;52.378;10.400;2023-03-21T02:12:32;25.20;;;17.60;;
58896;SDS011;44677;52.378;10.400;2023-03-21T02:14:58;24.10;;;17.70;;
58896;SDS011;44677;52.378;10.400;2023-03-21T02:17:47;28.50;;;18.70;;
58896;SDS011;44677;52.378;10.400;2023-03-21T02:27:20;25.00;;;16.90;;
58896;SDS011;44677;52.378;10.400;2023-03-21T02:32:38;23.20;;;17.20;;
58896;SDS011;44677;52.378;10.400;2023-03-21T02:43:38;25.00;;;16.40;;
58896;SDS011;44677;52.378;10.400;2023-03-21T02:49:06;27.00;;;17.20;;
58896;SDS011;44677;52.378;10.400;2023-03-21T02:51:38;27.10;;;18.80;;
58896;SDS011;44677;52.378;10.400;2023-03-21T02:54:07;26.20;;;16.80;;
58896;SDS011;44677;52.378;10.400;2023-03-21T02:56:36;30.70;;;17.90;;
58896;SDS011;44677;52.378;10.400;2023-03-21T02:59:03;26.80;;;17.40;;
58896;SDS011;44677;52.378;10.400;2023-03-21T03:01:30;24.60;;;17.60;;
58896;SDS011;44677;52.378;10.400;2023-03-21T03:03:56;28.40;;;18.00;;
58896;SDS011;44677;52.378;10.400;2023-03-21T03:06:24;27.30;;;18.00;;
58896;SDS011;44677;52.378;10.400;2023-03-21T03:11:38;22.90;;;17.20;;
58896;SDS011;44677;52.378;10.400;2023-03-21T03:16:35;27.60;;;18.20;;
58896;SDS011;44677;52.378;10.400;2023-03-21T03:19:01;27.70;;;19.80;;
58896;SDS011;44677;52.378;10.400;2023-03-21T03:26:36;25.70;;;18.20;;
58896;SDS011;44677;52.378;10.400;2023-03-21T03:29:06;25.20;;;18.40;;
58896;SDS011;44677;52.378;10.400;2023-03-21T03:31:38;23.90;;;17.30;;
58896;SDS011;44677;52.378;10.400;2023-03-21T03:34:09;25.30;;;17.80;;
58896;SDS011;44677;52.378;10.400;2023-03-21T03:36:40;26.20;;;17.40;;
58896;SDS011;44677;52.378;10.400;2023-03-21T03:39:11;26.30;;;17.00;;
58896;SDS011;44677;52.378;10.400;2023-03-21T03:41:44;24.10;;;17.90;;
58896;SDS011;44677;52.378;10.400;2023-03-21T03:44:11;25.60;;;17.90;;
58896;SDS011;44677;52.378;10.400;2023-03-21T03:46:39;27.70;;;16.90;;
58896;SDS011;44677;52.378;10.400;2023-03-21T03:49:14;21.70;;;16.70;;
58896;SDS011;44677;52.378;10.400;2023-03-21T03:54:31;27.90;;;18.10;;
58896;SDS011;44677;52.378;10.400;2023-03-21T03:56:59;28.00;;;18.90;;
58896;SDS011;44677;52.378;10.400;2023-03-21T03:59:25;26.60;;;18.60;;
58896;SDS011;44677;52.378;10.400;2023-03-21T04:01:58;25.30;;;18.40;;
58896;SDS011;44677;52.378;10.400;2023-03-21T04:04:23;27.30;;;17.50;;
58896;SDS011;44677;52.378;10.400;2023-03-21T04:06:53;23.60;;;17.10;;
58896;SDS011;44677;52.378;10.400;2023-03-21T04:09:21;27.30;;;18.10;;
58896;SDS011;44677;52.378;10.400;2023-03-21T04:11:46;25.70;;;17.60;;
58896;SDS011;44677;52.378;10.400;2023-03-21T04:14:12;22.60;;;16.70;;
58896;SDS011;44677;52.378;10.400;2023-03-21T04:16:37;23.30;;;17.00;;
58896;SDS011;44677;52.378;10.400;2023-03-21T04:19:03;23.30;;;16.80;;
58896;SDS011;44677;52.378;10.400;2023-03-21T04:21:28;22.90;;;16.00;;
58896;SDS011;44677;52.378;10.400;2023-03-21T04:23:54;27.50;;;17.50;;
58896;SDS011;44677;52.378;10.400;2023-03-21T04:26:20;25.30;;;17.60;;
58896;SDS011;44677;52.378;10.400;2023-03-21T04:29:00;23.90;;;17.00;;
58896;SDS011;44677;52.378;10.400;2023-03-21T04:31:52;26.00;;;17.20;;
58896;SDS011;44677;52.378;10.400;2023-03-21T04:34:17;23.90;;;17.20;;
58896;SDS011;44677;52.378;10.400;2023-03-21T04:36:49;22.60;;;16.40;;
58896;SDS011;44677;52.378;10.400;2023-03-21T04:39:18;21.80;;;16.30;;
58896;SDS011;44677;52.378;10.400;2023-03-21T04:41:46;26.00;;;17.30;;
58896;SDS011;44677;52.378;10.400;2023-03-21T04:44:13;27.80;;;16.40;;
58896;SDS011;44677;52.378;10.400;2023-03-21T04:46:39;22.60;;;17.50;;
58896;SDS011;44677;52.378;10.400;2023-03-21T04:49:05;23.50;;;15.30;;
58896;SDS011;44677;52.378;10.400;2023-03-21T04:51:32;28.00;;;17.00;;
58896;SDS011;44677;52.378;10.400;2023-03-21T04:53:58;28.20;;;16.90;;
58896;SDS011;44677;52.378;10.400;2023-03-21T04:56:24;25.90;;;17.40;;
58896;SDS011;44677;52.378;10.400;2023-03-21T04:58:56;24.00;;;15.70;;
58896;SDS011;44677;52.378;10.400;2023-03-21T05:01:23;24.50;;;16.40;;
58896;SDS011;44677;52.378;10.400;2023-03-21T05:03:50;24.20;;;16.30;;
58896;SDS011;44677;52.378;10.400;2023-03-21T05:06:16;22.80;;;15.80;;
58896;SDS011;44677;52.378;10.400;2023-03-21T05:08:42;24.30;;;15.50;;
58896;SDS011;44677;52.378;10.400;2023-03-21T05:11:11;31.60;;;16.30;;
58896;SDS011;44677;52.378;10.400;2023-03-21T05:13:36;24.90;;;16.30;;
58896;SDS011;44677;52.378;10.400;2023-03-21T05:16:02;25.80;;;16.70;;
58896;SDS011;44677;52.378;10.400;2023-03-21T05:18:27;25.70;;;15.40;;
58896;SDS011;44677;52.378;10.400;2023-03-21T05:21:03;22.90;;;15.20;;
58896;SDS011;44677;52.378;10.400;2023-03-21T05:23:32;28.60;;;16.50;;
58896;SDS011;44677;52.378;10.400;2023-03-21T05:26:08;24.10;;;16.70;;
58896;SDS011;44677;52.378;10.400;2023-03-21T05:28:47;24.70;;;15.40;;
58896;SDS011;44677;52.378;10.400;2023-03-21T05:31:14;22.00;;;15.10;;
58896;SDS011;44677;52.378;10.400;2023-03-21T05:33:42;22.00;;;14.90;;
58896;SDS011;44677;52.378;10.400;2023-03-21T05:36:09;23.20;;;15.00;;
58896;SDS011;44677;52.378;10.400;2023-03-21T05:38:34;21.00;;;14.40;;
58896;SDS011;44677;52.378;10.400;2023-03-21T05:41:00;22.10;;;13.30;;
58896;SDS011;44677;52.378;10.400;2023-03-21T05:43:26;21.00;;;13.10;;
58896;SDS011;44677;52.378;10.400;2023-03-21T05:45:51;20.80;;;13.70;;
58896;SDS011;44677;52.378;10.400;2023-03-21T05:48:17;20.00;;;14.40;;
58896;SDS011;44677;52.378;10.400;2023-03-21T05:51:06;21.80;;;13.60;;
58896;SDS011;44677;52.378;10.400;2023-03-21T05:53:32;20.40;;;13.00;;
58896;SDS011;44677;52.378;10.400;2023-03-21T05:55:57;19.60;;;12.80;;
58896;SDS011;44677;52.378;10.400;2023-03-21T05:58:40;21.30;;;12.80;;
58896;SDS011;44677;52.378;10.400;2023-03-21T06:01:05;22.80;;;13.30;;
58896;SDS011;44677;52.378;10.400;2023-03-21T06:03:32;16.20;;;12.20;;
58896;SDS011;44677;52.378;10.400;2023-03-21T06:06:06;17.10;;;12.10;;
58896;SDS011;44677;52.378;10.400;2023-03-21T06:08:35;19.40;;;12.70;;
58896;SDS011;44677;52.378;10.400;2023-03-21T06:11:01;17.50;;;13.00;;
58896;SDS011;44677;52.378;10.400;2023-03-21T06:13:27;20.20;;;12.90;;
58896;SDS011;44677;52.378;10.400;2023-03-21T06:15:52;20.80;;;13.60;;
58896;SDS011;44677;52.378;10.400;2023-03-21T06:18:20;19.70;;;13.10;;
58896;SDS011;44677;52.378;10.400;2023-03-21T06:21:11;18.10;;;12.10;;
58896;SDS011;44677;52.378;10.400;2023-03-21T06:23:38;22.20;;;13.40;;
58896;SDS011;44677;52.378;10.400;2023-03-21T06:26:03;17.00;;;11.50;;
58896;SDS011;44677;52.378;10.400;2023-03-21T06:28:29;16.10;;;11.60;;
58896;SDS011;44677;52.378;10.400;2023-03-21T06:30:55;18.00;;;12.20;;
58896;SDS011;44677;52.378;10.400;2023-03-21T06:33:23;17.70;;;11.80;;
58896;SDS011;44677;52.378;10.400;2023-03-21T06:35:52;19.80;;;12.60;;
58896;SDS011;44677;52.378;10.400;2023-03-21T06:38:18;19.20;;;12.10;;
58896;SDS011;44677;52.378;10.400;2023-03-21T06:40:46;18.30;;;11.70;;
58896;SDS011;44677;52.378;10.400;2023-03-21T06:43:12;23.90;;;13.00;;
58896;SDS011;44677;52.378;10.400;2023-03-21T06:45:38;18.60;;;12.50;;
58896;SDS011;44677;52.378;10.400;2023-03-21T06:48:04;16.40;;;11.30;;
58896;SDS011;44677;52.378;10.400;2023-03-21T06:50:40;23.20;;;11.90;;
58896;SDS011;44677;52.378;10.400;2023-03-21T06:53:06;20.90;;;12.40;;
58896;SDS011;44677;52.378;10.400;2023-03-21T06:55:38;19.20;;;11.20;;
58896;SDS011;44677;52.378;10.400;2023-03-21T06:58:03;19.60;;;12.00;;
58896;SDS011;44677;52.378;10.400;2023-03-21T07:00:28;18.20;;;11.90;;
58896;SDS011;44677;52.378;10.400;2023-03-21T07:02:54;16.70;;;11.30;;
58896;SDS011;44677;52.378;10.400;2023-03-21T07:05:22;17.80;;;12.00;;
58896;SDS011;44677;52.378;10.400;2023-03-21T07:07:48;19.20;;;11.00;;
58896;SDS011;44677;52.378;10.400;2023-03-21T07:10:14;19.80;;;11.00;;
58896;SDS011;44677;52.378;10.400;2023-03-21T07:13:05;15.10;;;10.50;;
58896;SDS011;44677;52.378;10.400;2023-03-21T07:15:36;20.60;;;11.10;;
58896;SDS011;44677;52.378;10.400;2023-03-21T07:18:03;17.10;;;10.60;;
58896;SDS011;44677;52.378;10.400;2023-03-21T07:20:31;17.10;;;11.00;;
58896;SDS011;44677;52.378;10.400;2023-03-21T07:22:57;15.40;;;11.10;;
58896;SDS011;44677;52.378;10.400;2023-03-21T07:25:24;16.30;;;11.00;;
58896;SDS011;44677;52.378;10.400;2023-03-21T07:27:50;19.00;;;11.50;;
58896;SDS011;44677;52.378;10.400;2023-03-21T07:30:16;19.10;;;10.50;;
58896;SDS011;44677;52.378;10.400;2023-03-21T07:32:42;17.00;;;10.50;;
58896;SDS011;44677;52.378;10.400;2023-03-21T07:35:11;15.80;;;10.60;;
58896;SDS011;44677;52.378;10.400;2023-03-21T07:37:37;17.50;;;11.30;;
58896;SDS011;44677;52.378;10.400;2023-03-21T07:40:04;16.10;;;10.80;;
58896;SDS011;44677;52.378;10.400;2023-03-21T07:42:40;17.40;;;10.40;;
58896;SDS011;44677;52.378;10.400;2023-03-21T07:45:06;17.90;;;11.00;;
58896;SDS011;44677;52.378;10.400;2023-03-21T07:49:58;14.70;;;9.70;;
58896;SDS011;44677;52.378;10.400;2023-03-21T07:52:25;17.80;;;10.10;;
58896;SDS011;44677;52.378;10.400;2023-03-21T07:54:50;17.40;;;10.70;;
58896;SDS011;44677;52.378;10.400;2023-03-21T07:57:16;18.60;;;10.60;;
58896;SDS011;44677;52.378;10.400;2023-03-21T07:59:42;16.10;;;10.10;;
58896;SDS011;44677;52.378;10.400;2023-03-21T08:02:14;17.30;;;9.90;;
58896;SDS011;44677;52.378;10.400;2023-03-21T08:04:41;17.10;;;10.50;;
58896;SDS011;44677;52.378;10.400;2023-03-21T08:07:06;16.30;;;10.10;;
58896;SDS011;44677;52.378;10.400;2023-03-21T08:09:32;15.70;;;10.00;;
58896;SDS011;44677;52.378;10.400;2023-03-21T08:11:57;20.90;;;10.80;;
58896;SDS011;44677;52.378;10.400;2023-03-21T08:14:22;16.70;;;10.00;;
58896;SDS011;44677;52.378;10.400;2023-03-21T08:16:48;12.40;;;8.40;;
58896;SDS011;44677;52.378;10.400;2023-03-21T08:19:13;15.70;;;9.50;;
58896;SDS011;44677;52.378;10.400;2023-03-21T08:21:40;12.90;;;9.00;;
58896;SDS011;44677;52.378;10.400;2023-03-21T08:24:05;13.10;;;9.20;;
58896;SDS011;44677;52.378;10.400;2023-03-21T08:26:31;17.80;;;9.00;;
58896;SDS011;44677;52.378;10.400;2023-03-21T08:29:00;15.80;;;9.50;;
58896;SDS011;44677;52.378;10.400;2023-03-21T08:31:26;14.40;;;8.70;;
58896;SDS011;44677;52.378;10.400;2023-03-21T08:33:52;17.20;;;9.70;;
58896;SDS011;44677;52.378;10.400;2023-03-21T08:36:20;16.60;;;9.00;;
58896;SDS011;44677;52.378;10.400;2023-03-21T08:38:46;15.40;;;8.90;;
58896;SDS011;44677;52.378;10.400;2023-03-21T08:41:15;13.70;;;9.30;;
58896;SDS011;44677;52.378;10.400;2023-03-21T08:43:41;14.90;;;9.50;;
58896;SDS011;44677;52.378;10.400;2023-03-21T08:46:06;15.50;;;8.90;;
58896;SDS011;44677;52.378;10.400;2023-03-21T08:48:31;14.00;;;9.10;;
58896;SDS011;44677;52.378;10.400;2023-03-21T08:51:00;15.50;;;9.20;;
58896;SDS011;44677;52.378;10.400;2023-03-21T08:53:25;14.10;;;8.70;;
58896;SDS011;44677;52.378;10.400;2023-03-21T08:55:51;14.00;;;8.70;;
58896;SDS011;44677;52.378;10.400;2023-03-21T08:58:16;14.50;;;9.20;;
58896;SDS011;44677;52.378;10.400;2023-03-21T09:00:41;19.00;;;9.10;;
58896;SDS011;44677;52.378;10.400;2023-03-21T09:03:07;13.70;;;9.30;;
58896;SDS011;44677;52.378;10.400;2023-03-21T09:05:32;16.00;;;9.00;;
58896;SDS011;44677;52.378;10.400;2023-03-21T09:07:58;14.30;;;9.00;;
58896;SDS011;44677;52.378;10.400;2023-03-21T09:10:25;18.80;;;10.00;;
58896;SDS011;44677;52.378;10.400;2023-03-21T09:12:52;16.90;;;9.50;;
58896;SDS011;44677;52.378;10.400;2023-03-21T09:15:18;15.40;;;9.50;;
58896;SDS011;44677;52.378;10.400;2023-03-21T09:17:46;17.70;;;9.40;;
58896;SDS011;44677;52.378;10.400;2023-03-21T09:20:17;17.30;;;9.60;;
58896;SDS011;44677;52.378;10.400;2023-03-21T09:22:50;13.90;;;9.40;;
58896;SDS011;44677;52.378;10.400;2023-03-21T09:25:16;17.50;;;9.80;;
58896;SDS011;44677;52.378;10.400;2023-03-21T09:27:43;15.90;;;9.10;;
58896;SDS011;44677;52.378;10.400;2023-03-21T09:30:13;18.80;;;9.40;;
58896;SDS011;44677;52.378;10.400;2023-03-21T09:32:40;17.60;;;9.80;;
58896;SDS011;44677;52.378;10.400;2023-03-21T09:35:06;17.60;;;10.80;;
58896;SDS011;44677;52.378;10.400;2023-03-21T09:37:32;15.70;;;10.20;;
58896;SDS011;44677;52.378;10.400;2023-03-21T09:39:58;17.50;;;9.50;;
58896;SDS011;44677;52.378;10.400;2023-03-21T09:42:28;12.00;;;8.90;;
58896;SDS011;44677;52.378;10.400;2023-03-21T09:47:50;18.10;;;9.80;;
58896;SDS011;44677;52.378;10.400;2023-03-21T09:50:19;15.10;;;8.80;;
58896;SDS011;44677;52.378;10.400;2023-03-21T10:00:39;15.10;;;9.80;;
58896;SDS011;44677;52.378;10.400;2023-03-21T10:03:23;17.20;;;10.00;;
58896;SDS011;44677;52.378;10.400;2023-03-21T10:05:54;16.90;;;10.40;;
58896;SDS011;44677;52.378;10.400;2023-03-21T10:08:26;21.30;;;9.70;;
58896;SDS011;44677;52.378;10.400;2023-03-21T10:10:57;20.40;;;9.60;;
58896;SDS011;44677;52.378;10.400;2023-03-21T10:13:31;15.10;;;9.00;;
58896;SDS011;44677;52.378;10.400;2023-03-21T10:16:05;17.10;;;9.00;;
58896;SDS011;44677;52.378;10.400;2023-03-21T10:18:38;17.40;;;9.00;;
58896;SDS011;44677;52.378;10.400;2023-03-21T10:21:06;17.90;;;9.10;;
58896;SDS011;44677;52.378;10.400;2023-03-21T10:23:32;16.00;;;9.50;;
58896;SDS011;44677;52.378;10.400;2023-03-21T10:25:58;16.10;;;9.30;;
58896;SDS011;44677;52.378;10.400;2023-03-21T10:28:27;16.70;;;9.10;;
58896;SDS011;44677;52.378;10.400;2023-03-21T10:30:58;16.50;;;9.40;;
58896;SDS011;44677;52.378;10.400;2023-03-21T10:33:26;16.80;;;9.70;;
58896;SDS011;44677;52.378;10.400;2023-03-21T10:36:01;16.70;;;9.30;;
58896;SDS011;44677;52.378;10.400;2023-03-21T10:38:29;15.20;;;9.20;;
58896;SDS011;44677;52.378;10.400;2023-03-21T10:40:55;13.80;;;8.70;;
58896;SDS011;44677;52.378;10.400;2023-03-21T10:45:54;17.70;;;10.00;;
58896;SDS011;44677;52.378;10.400;2023-03-21T10:48:21;18.20;;;9.60;;
58896;SDS011;44677;52.378;10.400;2023-03-21T10:50:49;17.90;;;9.20;;
58896;SDS011;44677;52.378;10.400;2023-03-21T10:53:17;15.80;;;8.70;;
58896;SDS011;44677;52.378;10.400;2023-03-21T10:55:51;16.00;;;8.50;;
58896;SDS011;44677;52.378;10.400;2023-03-21T10:58:21;17.50;;;9.20;;
58896;SDS011;44677;52.378;10.400;2023-03-21T11:00:55;15.20;;;8.70;;
58896;SDS011;44677;52.378;10.400;2023-03-21T11:03:31;17.30;;;8.80;;
58896;SDS011;44677;52.378;10.400;2023-03-21T11:06:02;16.50;;;8.30;;
58896;SDS011;44677;52.378;10.400;2023-03-21T11:08:32;20.10;;;8.50;;
58896;SDS011;44677;52.378;10.400;2023-03-21T11:11:04;12.90;;;8.20;;
58896;SDS011;44677;52.378;10.400;2023-03-21T11:13:42;15.70;;;8.20;;
58896;SDS011;44677;52.378;10.400;2023-03-21T11:16:10;14.90;;;7.90;;
58896;SDS011;44677;52.378;10.400;2023-03-21T11:18:38;18.90;;;8.40;;
58896;SDS011;44677;52.378;10.400;2023-03-21T11:21:09;16.10;;;8.70;;
58896;SDS011;44677;52.378;10.400;2023-03-21T11:23:37;18.20;;;9.00;;
58896;SDS011;44677;52.378;10.400;2023-03-21T11:26:08;14.90;;;8.70;;
58896;SDS011;44677;52.378;10.400;2023-03-21T11:28:36;16.10;;;8.60;;
58896;SDS011;44677;52.378;10.400;2023-03-21T11:31:03;16.70;;;8.60;;
58896;SDS011;44677;52.378;10.400;2023-03-21T11:33:34;15.10;;;8.50;;
58896;SDS011;44677;52.378;10.400;2023-03-21T11:38:42;13.60;;;7.80;;
58896;SDS011;44677;52.378;10.400;2023-03-21T11:41:07;14.50;;;7.70;;
58896;SDS011;44677;52.378;10.400;2023-03-21T11:43:37;11.10;;;7.40;;
58896;SDS011;44677;52.378;10.400;2023-03-21T11:48:28;12.60;;;6.90;;
58896;SDS011;44677;52.378;10.400;2023-03-21T11:50:57;11.30;;;6.40;;
58896;SDS011;44677;52.378;10.400;2023-03-21T11:53:33;11.10;;;5.80;;
58896;SDS011;44677;52.378;10.400;2023-03-21T12:01:14;12.70;;;6.40;;
58896;SDS011;44677;52.378;10.400;2023-03-21T12:12:46;12.50;;;7.20;;
58896;SDS011;44677;52.378;10.400;2023-03-21T12:20:53;15.90;;;7.60;;
58896;SDS011;44677;52.378;10.400;2023-03-21T12:23:49;12.30;;;8.00;;
58896;SDS011;44677;52.378;10.400;2023-03-21T12:26:25;14.70;;;7.30;;
58896;SDS011;44677;52.378;10.400;2023-03-21T12:29:14;14.90;;;7.10;;
58896;SDS011;44677;52.378;10.400;2023-03-21T12:39:38;13.90;;;8.30;;
58896;SDS011;44677;52.378;10.400;2023-03-21T12:42:19;12.50;;;8.20;;
58896;SDS011;44677;52.378;10.400;2023-03-21T12:44:55;12.50;;;7.90;;
58896;SDS011;44677;52.378;10.400;2023-03-21T12:47:28;11.50;;;7.70;;
58896;SDS011;44677;52.378;10.400;2023-03-21T12:50:00;19.40;;;8.80;;
58896;SDS011;44677;52.378;10.400;2023-03-21T12:52:29;15.00;;;8.00;;
58896;SDS011;44677;52.378;10.400;2023-03-21T12:55:13;16.50;;;9.00;;
58896;SDS011;44677;52.378;10.400;2023-03-21T13:05:29;16.40;;;8.60;;
58896;SDS011;44677;52.378;10.400;2023-03-21T13:10:50;16.90;;;9.50;;
58896;SDS011;44677;52.378;10.400;2023-03-21T13:13:18;18.80;;;8.80;;
58896;SDS011;44677;52.378;10.400;2023-03-21T13:21:15;18.70;;;10.90;;
58896;SDS011;44677;52.378;10.400;2023-03-21T13:24:04;15.50;;;9.60;;
58896;SDS011;44677;52.378;10.400;2023-03-21T13:26:43;16.60;;;9.80;;
58896;SDS011;44677;52.378;10.400;2023-03-21T13:32:09;17.10;;;10.90;;
58896;SDS011;44677;52.378;10.400;2023-03-21T13:34:40;18.60;;;10.70;;
58896;SDS011;44677;52.378;10.400;2023-03-21T13:37:09;19.10;;;11.90;;
58896;SDS011;44677;52.378;10.400;2023-03-21T13:39:41;22.30;;;10.00;;
58896;SDS011;44677;52.378;10.400;2023-03-21T13:42:10;15.80;;;10.00;;
58896;SDS011;44677;52.378;10.400;2023-03-21T13:44:43;19.10;;;10.60;;
58896;SDS011;44677;52.378;10.400;2023-03-21T13:47:23;17.20;;;10.80;;
58896;SDS011;44677;52.378;10.400;2023-03-21T13:50:19;17.90;;;11.00;;
58896;SDS011;44677;52.378;10.400;2023-03-21T13:53:08;17.30;;;11.60;;
58896;SDS011;44677;52.378;10.400;2023-03-21T13:55:40;19.10;;;11.00;;
58896;SDS011;44677;52.378;10.400;2023-03-21T14:04:13;19.00;;;10.90;;
58896;SDS011;44677;52.378;10.400;2023-03-21T14:06:41;18.80;;;11.50;;
58896;SDS011;44677;52.378;10.400;2023-03-21T14:09:11;20.20;;;12.00;;
58896;SDS011;44677;52.378;10.400;2023-03-21T14:12:00;21.80;;;11.30;;
58896;SDS011;44677;52.378;10.400;2023-03-21T14:14:32;16.90;;;11.70;;
58896;SDS011;44677;52.378;10.400;2023-03-21T14:17:10;18.20;;;11.30;;
58896;SDS011;44677;52.378;10.400;2023-03-21T14:19:36;24.10;;;12.60;;
58896;SDS011;44677;52.378;10.400;2023-03-21T14:22:03;18.70;;;11.40;;
58896;SDS011;44677;52.378;10.400;2023-03-21T14:24:33;20.20;;;11.80;;
58896;SDS011;44677;52.378;10.400;2023-03-21T14:26:59;21.30;;;12.40;;
58896;SDS011;44677;52.378;10.400;2023-03-21T14:31:54;16.00;;;11.60;;
58896;SDS011;44677;52.378;10.400;2023-03-21T14:34:21;24.50;;;12.10;;
58896;SDS011;44677;52.378;10.400;2023-03-21T14:36:47;23.30;;;11.60;;
58896;SDS011;44677;52.378;10.400;2023-03-21T14:39:17;21.70;;;12.20;;
58896;SDS011;44677;52.378;10.400;2023-03-21T14:41:52;20.00;;;13.20;;
58896;SDS011;44677;52.378;10.400;2023-03-21T14:44:21;22.00;;;12.90;;
58896;SDS011;44677;52.378;10.400;2023-03-21T14:46:51;22.90;;;13.50;;
58896;SDS011;44677;52.378;10.400;2023-03-21T14:49:23;23.80;;;13.70;;
58896;SDS011;44677;52.378;10.400;2023-03-21T14:51:54;22.90;;;13.80;;
58896;SDS011;44677;52.378;10.400;2023-03-21T14:54:21;21.80;;;12.90;;
58896;SDS011;44677;52.378;10.400;2023-03-21T14:56:58;24.70;;;14.80;;
58896;SDS011;44677;52.378;10.400;2023-03-21T14:59:29;28.00;;;15.50;;
58896;SDS011;44677;52.378;10.400;2023-03-21T15:01:58;20.20;;;13.90;;
58896;SDS011;44677;52.378;10.400;2023-03-21T15:04:26;23.20;;;12.80;;
58896;SDS011;44677;52.378;10.400;2023-03-21T15:06:56;27.10;;;14.90;;
58896;SDS011;44677;52.378;10.400;2023-03-21T15:09:26;19.10;;;11.90;;
58896;SDS011;44677;52.378;10.400;2023-03-21T15:11:54;20.60;;;12.30;;
58896;SDS011;44677;52.378;10.400;2023-03-21T15:16:51;18.70;;;11.90;;
58896;SDS011;44677;52.378;10.400;2023-03-21T15:21:45;20.00;;;11.70;;
58896;SDS011;44677;52.378;10.400;2023-03-21T15:24:17;23.50;;;12.20;;
58896;SDS011;44677;52.378;10.400;2023-03-21T15:26:47;19.00;;;11.00;;
58896;SDS011;44677;52.378;10.400;2023-03-21T15:29:13;21.60;;;11.70;;
58896;SDS011;44677;52.378;10.400;2023-03-21T15:31:40;19.00;;;11.90;;
58896;SDS011;44677;52.378;10.400;2023-03-21T15:34:06;18.90;;;11.70;;
58896;SDS011;44677;52.378;10.400;2023-03-21T15:36:32;20.00;;;11.10;;
58896;SDS011;44677;52.378;10.400;2023-03-21T15:39:05;15.80;;;10.40;;
58896;SDS011;44677;52.378;10.400;2023-03-21T15:41:32;22.10;;;10.60;;
58896;SDS011;44677;52.378;10.400;2023-03-21T15:44:04;19.40;;;10.20;;
58896;SDS011;44677;52.378;10.400;2023-03-21T15:47:10;18.00;;;10.60;;
58896;SDS011;44677;52.378;10.400;2023-03-21T15:49:30;17.70;;;11.50;;
58896;SDS011;44677;52.378;10.400;2023-03-21T15:52:09;23.50;;;12.30;;
58896;SDS011;44677;52.378;10.400;2023-03-21T15:54:50;19.30;;;10.40;;
58896;SDS011;44677;52.378;10.400;2023-03-21T15:57:23;16.50;;;11.30;;
58896;SDS011;44677;52.378;10.400;2023-03-21T15:59:54;16.70;;;10.80;;
58896;SDS011;44677;52.378;10.400;2023-03-21T16:02:22;16.80;;;10.40;;
58896;SDS011;44677;52.378;10.400;2023-03-21T16:07:25;20.30;;;10.50;;
58896;SDS011;44677;52.378;10.400;2023-03-21T16:09:55;17.00;;;10.90;;
58896;SDS011;44677;52.378;10.400;2023-03-21T16:12:22;19.70;;;11.30;;
58896;SDS011;44677;52.378;10.400;2023-03-21T16:14:48;15.40;;;10.30;;
58896;SDS011;44677;52.378;10.400;2023-03-21T16:17:25;15.80;;;9.90;;
58896;SDS011;44677;52.378;10.400;2023-03-21T16:19:55;19.80;;;11.60;;
58896;SDS011;44677;52.378;10.400;2023-03-21T16:22:20;18.90;;;10.50;;
58896;SDS011;44677;52.378;10.400;2023-03-21T16:24:46;19.00;;;11.80;;
58896;SDS011;44677;52.378;10.400;2023-03-21T16:27:19;15.50;;;10.20;;
58896;SDS011;44677;52.378;10.400;2023-03-21T16:29:45;19.00;;;11.20;;
58896;SDS011;44677;52.378;10.400;2023-03-21T16:32:14;18.20;;;12.10;;